This is the latest recevied weather packets stored in our database for station/object KE9DBJ-13. If no packets are shown the sender has not sent any weather packets the latest 10 day(s).
| Time | Temp. | Humidity | Pressure | Rain* | Wind** | Luminosity | Snow |
|---|---|---|---|---|---|---|---|
| 1777411202 | 23.89° C | 57% | 1011.8 hPa | 0 mm | - | - | - |
| 1777410602 | 24.44° C | 56% | 1011.8 hPa | 0 mm | - | - | - |
| 1777410002 | 24.44° C | 59% | 1011.9 hPa | 0 mm | - | - | - |
| 1777409402 | 25° C | 56% | 1012.2 hPa | 0 mm | - | - | - |
| 1777408802 | 25.56° C | 55% | 1012.3 hPa | 0 mm | - | - | - |
| 1777408202 | 25.56° C | 54% | 1012.5 hPa | 0 mm | - | - | - |
| 1777407603 | 25.56° C | 55% | 1012.6 hPa | 0 mm | - | - | - |
| 1777407003 | 25.56° C | 57% | 1012.7 hPa | 0 mm | - | - | - |
| 1777406403 | 25° C | 58% | 1012.7 hPa | 0 mm | - | - | - |
| 1777405803 | 25° C | 58% | 1012.7 hPa | 0 mm | - | - | - |
| 1777405203 | 25.56° C | 58% | 1012.4 hPa | 0 mm | - | - | - |
| 1777404603 | 26.11° C | 58% | 1012.4 hPa | 0 mm | - | - | - |
| 1777404003 | 25° C | 59% | 1012.4 hPa | 0 mm | - | - | - |
| 1777403403 | 25° C | 62% | 1012.5 hPa | 0 mm | - | - | - |
| 1777402803 | 24.44° C | 62% | 1012.6 hPa | 0 mm | - | - | - |
| 1777402203 | 24.44° C | 64% | 1012.8 hPa | 0 mm | - | - | - |
| 1777401603 | 24.44° C | 64% | 1013 hPa | 0 mm | - | - | - |
| 1777401002 | 24.44° C | 63% | 1013.1 hPa | 0 mm | - | - | - |
| 1777400403 | 24.44° C | 65% | 1013.1 hPa | 0 mm | - | - | - |
| 1777399802 | 23.33° C | 67% | 1013.3 hPa | 0 mm | - | - | - |
| 1777399202 | 23.89° C | 66% | 1013.3 hPa | 0 mm | - | - | - |
| 1777398602 | 22.78° C | 71% | 1013.6 hPa | 0 mm | - | - | - |
| 1777398002 | 24.44° C | 68% | 1013.7 hPa | 0 mm | - | - | - |
| 1777397402 | 22.78° C | 73% | 1013.8 hPa | 0 mm | - | - | - |
| 1777396802 | 21.11° C | 78% | 1014.1 hPa | 0 mm | - | - | - |
* Rain latest hour (hover to see other rain measurements)
** Current wind speed in m/s (hover to see current wind gust speed)